Time;durP1;ratioP1;P1;durP2;ratioP2;P2;SDS_P1;SDS_P2;PMS_P1;PMS_P2;Temp;Humidity;BMP_temperature;BMP_pressure;BME280_temperature;BME280_humidity;BME280_pressure;Samples;Min_cycle;Max_cycle;Signal;HPM_P1;HPM_P2
2022/11/01 00:02:12;;;;;;;68.80;29.63;;;12.80;1.00;;;;;;4926415;29;20183;-46
2022/11/01 00:04:38;;;;;;;62.97;29.33;;;12.80;1.00;;;;;;4931602;29;20493;-46
2022/11/01 00:07:04;;;;;;;70.57;29.90;;;12.80;1.00;;;;;;4927005;29;20186;-46
2022/11/01 00:09:29;;;;;;;62.37;29.40;;;12.80;1.00;;;;;;4932775;29;20229;-46
2022/11/01 00:11:55;;;;;;;63.27;29.57;;;12.80;1.00;;;;;;4927047;29;20203;-46
2022/11/01 00:14:21;;;;;;;63.57;28.67;;;12.80;1.00;;;;;;4929832;29;20299;-46
2022/11/01 00:16:47;;;;;;;60.43;28.67;;;12.90;1.00;;;;;;4926253;29;20537;-46
2022/11/01 00:19:12;;;;;;;56.70;28.83;;;12.90;1.00;;;;;;4927840;29;20194;-46
2022/11/01 00:21:38;;;;;;;70.70;32.13;;;12.80;1.00;;;;;;4926368;29;20435;-46
2022/11/01 00:24:04;;;;;;;62.00;27.67;;;12.80;1.00;;;;;;4931004;29;20190;-45
2022/11/01 00:26:30;;;;;;;63.37;29.77;;;12.70;1.00;;;;;;4927716;29;20221;-45
2022/11/01 00:28:55;;;;;;;61.80;26.70;;;12.70;1.00;;;;;;4928328;29;20964;-44
2022/11/01 00:31:21;;;;;;;56.37;27.40;;;12.70;1.00;;;;;;4926769;29;20217;-45
2022/11/01 00:33:47;;;;;;;74.03;30.23;;;12.70;1.00;;;;;;4929908;29;20349;-45
2022/11/01 00:36:13;;;;;;;60.63;28.30;;;12.80;1.00;;;;;;4929107;29;20537;-46
2022/11/01 00:38:39;;;;;;;65.70;30.70;;;12.80;1.00;;;;;;4931402;29;20190;-46
2022/11/01 00:41:05;;;;;;;68.00;30.90;;;12.80;1.00;;;;;;4930362;29;20443;-46
2022/11/01 00:43:32;;;;;;;66.03;30.80;;;12.90;1.00;;;;;;4930313;29;20190;-47
2022/11/01 00:45:58;;;;;;;65.97;31.43;;;12.90;1.00;;;;;;4927189;29;20186;-46
2022/11/01 00:48:24;;;;;;;65.30;30.33;;;12.90;1.00;;;;;;4929187;29;20556;-46
2022/11/01 00:50:49;;;;;;;73.27;32.57;;;12.90;1.00;;;;;;4927811;29;20447;-46
2022/11/01 00:53:15;;;;;;;68.33;31.47;;;12.90;1.00;;;;;;4931087;29;20246;-46
2022/11/01 00:55:41;;;;;;;65.27;31.93;;;12.90;1.00;;;;;;4928559;29;20213;-47
2022/11/01 00:58:07;;;;;;;64.00;30.70;;;12.90;1.00;;;;;;4928927;29;20639;-46
2022/11/01 01:00:33;;;;;;;65.73;31.13;;;12.90;1.00;;;;;;4927296;29;20245;-46
2022/11/01 01:02:59;;;;;;;62.67;29.13;;;12.90;1.00;;;;;;4927616;29;20529;-46
2022/11/01 01:05:24;;;;;;;62.60;29.43;;;12.90;1.00;;;;;;4930711;29;20514;-46
2022/11/01 01:07:50;;;;;;;59.70;28.60;;;12.90;1.00;;;;;;4928482;29;20213;-46
2022/11/01 01:10:16;;;;;;;55.50;27.97;;;12.90;1.00;;;;;;4930682;29;20202;-46
2022/11/01 01:12:42;;;;;;;60.77;31.13;;;12.90;1.00;;;;;;4925117;29;20191;-46
2022/11/01 01:15:08;;;;;;;66.73;32.23;;;13.00;1.00;;;;;;4930665;29;20936;-46
2022/11/01 01:17:33;;;;;;;54.60;29.27;;;13.00;1.00;;;;;;4927252;29;20194;-49
2022/11/01 01:19:59;;;;;;;62.50;30.00;;;13.10;1.00;;;;;;4929407;29;20430;-46
2022/11/01 01:22:27;;;;;;;53.17;27.53;;;13.10;1.00;;;;;;4930188;29;20593;-46
2022/11/01 01:24:52;;;;;;;54.93;28.60;;;13.10;1.00;;;;;;4924463;29;20198;-46
2022/11/01 01:27:18;;;;;;;63.23;31.17;;;13.20;1.00;;;;;;4918233;29;20855;-46
2022/11/01 01:29:44;;;;;;;61.07;30.67;;;13.10;1.00;;;;;;4917733;29;20202;-46
2022/11/01 01:32:27;;;;;;;56.13;29.70;;;13.20;1.00;;;;;;4920720;29;20190;-46
2022/11/01 01:34:53;;;;;;;66.97;29.07;;;13.20;1.00;;;;;;4929070;29;20206;-46
2022/11/01 01:37:19;;;;;;;53.77;30.77;;;13.10;1.00;;;;;;4927210;29;20859;-46
2022/11/01 01:39:44;;;;;;;55.73;29.90;;;13.10;1.00;;;;;;4927626;29;20184;-46
2022/11/01 01:42:30;;;;;;;60.33;29.87;;;13.10;1.00;;;;;;4923733;29;20246;-46
2022/11/01 01:44:55;;;;;;;62.00;29.30;;;13.20;1.00;;;;;;4915803;29;20201;-47
2022/11/01 01:47:28;;;;;;;62.03;32.10;;;13.20;1.00;;;;;;4927807;29;20965;-46
2022/11/01 01:50:01;;;;;;;64.87;31.70;;;13.20;1.00;;;;;;4921860;29;20214;-47
2022/11/01 01:52:32;;;;;;;63.70;31.13;;;13.20;1.00;;;;;;4920206;29;22622;-47
2022/11/01 01:55:01;;;;;;;57.87;31.90;;;13.20;1.00;;;;;;4920254;29;20461;-46
2022/11/01 01:57:27;;;;;;;56.70;30.20;;;13.20;1.00;;;;;;4916218;29;20442;-47
2022/11/01 01:59:52;;;;;;;56.97;29.97;;;13.20;1.00;;;;;;4916607;29;21968;-46
2022/11/01 02:02:20;;;;;;;62.90;30.83;;;13.30;1.00;;;;;;4921677;29;21106;-47
2022/11/01 02:04:52;;;;;;;64.00;31.37;;;13.30;1.00;;;;;;4917635;29;20277;-47
2022/11/01 02:07:18;;;;;;;55.60;30.37;;;13.30;1.00;;;;;;4916935;29;20529;-44
2022/11/01 02:09:44;;;;;;;63.87;32.60;;;13.20;1.00;;;;;;4919517;29;20445;-44
2022/11/01 02:12:12;;;;;;;73.87;34.97;;;13.20;1.00;;;;;;4918271;29;20206;-44
2022/11/01 02:14:41;;;;;;;66.53;33.70;;;13.20;1.00;;;;;;4917791;29;20875;-48
2022/11/01 02:17:38;;;;;;;65.67;32.50;;;13.30;1.00;;;;;;4918453;29;20438;-48
2022/11/01 02:20:31;;;;;;;66.00;32.03;;;13.30;1.00;;;;;;4918372;29;20970;-50
2022/11/01 02:23:30;;;;;;;68.17;33.93;;;13.40;1.00;;;;;;4917260;29;20537;-50
2022/11/01 02:26:33;;;;;;;75.10;35.50;;;13.40;1.00;;;;;;4923774;29;20449;-49
2022/11/01 02:29:22;;;;;;;82.10;35.90;;;13.40;1.00;;;;;;4916734;29;20433;-49
2022/11/01 02:32:01;;;;;;;70.70;34.63;;;13.40;1.00;;;;;;4920089;29;20531;-50
2022/11/01 02:34:58;;;;;;;68.47;35.23;;;13.50;1.00;;;;;;4922211;29;20508;-50
2022/11/01 02:37:27;;;;;;;81.80;36.20;;;13.50;1.00;;;;;;4932154;29;20613;-50
2022/11/01 02:39:58;;;;;;;69.43;34.17;;;13.50;1.00;;;;;;4931021;29;20430;-50
2022/11/01 02:42:45;;;;;;;73.70;34.57;;;13.60;1.00;;;;;;4932723;29;20422;-50
2022/11/01 02:45:26;;;;;;;72.87;33.97;;;13.50;1.00;;;;;;4931622;29;20433;-49
2022/11/01 02:47:56;;;;;;;79.30;35.80;;;13.50;1.00;;;;;;4928561;29;20619;-50
2022/11/01 02:50:24;;;;;;;79.97;35.70;;;13.60;1.00;;;;;;4931255;29;20461;-51
2022/11/01 02:52:51;;;;;;;74.90;36.50;;;13.50;1.00;;;;;;4929442;29;20505;-50
2022/11/01 02:55:28;;;;;;;77.40;37.30;;;13.50;1.00;;;;;;4928128;29;20454;-50
2022/11/01 02:58:11;;;;;;;77.90;36.80;;;13.50;1.00;;;;;;4932047;29;20444;-45
2022/11/01 03:00:36;;;;;;;73.93;36.60;;;13.60;1.00;;;;;;4928875;29;20826;-46
2022/11/01 03:03:09;;;;;;;82.27;38.10;;;13.60;1.00;;;;;;4932787;29;20453;-46
2022/11/01 03:05:47;;;;;;;83.33;38.83;;;13.60;1.00;;;;;;4930559;29;20507;-46
2022/11/01 03:08:17;;;;;;;90.43;40.50;;;13.60;1.00;;;;;;4929564;29;20606;-45
2022/11/01 03:11:05;;;;;;;90.27;40.70;;;13.60;1.00;;;;;;4930587;29;20533;-46
2022/11/01 03:13:43;;;;;;;86.60;40.00;;;13.70;1.00;;;;;;4928788;29;20581;-46
2022/11/01 03:16:20;;;;;;;90.37;40.73;;;13.70;1.00;;;;;;4931859;29;20528;-46
2022/11/01 03:19:05;;;;;;;85.07;39.60;;;13.70;1.00;;;;;;4931051;29;20440;-45
2022/11/01 03:21:40;;;;;;;94.13;40.73;;;13.70;1.00;;;;;;4928444;29;20842;-46
2022/11/01 03:24:26;;;;;;;85.07;41.90;;;13.70;1.00;;;;;;4925617;29;20477;-47
2022/11/01 03:27:06;;;;;;;106.17;43.20;;;13.80;1.00;;;;;;4929667;29;20438;-46
2022/11/01 03:29:35;;;;;;;99.70;42.00;;;13.80;1.00;;;;;;4931105;29;21014;-48
2022/11/01 03:32:02;;;;;;;87.20;42.53;;;13.80;1.00;;;;;;4931319;29;21036;-47
2022/11/01 03:34:30;;;;;;;84.57;40.60;;;13.80;1.00;;;;;;4927415;29;20941;-47
2022/11/01 03:37:00;;;;;;;89.73;42.60;;;13.80;1.00;;;;;;4930123;29;20853;-46
2022/11/01 03:39:38;;;;;;;90.90;41.77;;;13.80;1.00;;;;;;4930744;29;20484;-46
2022/11/01 03:42:08;;;;;;;87.47;41.93;;;13.80;1.00;;;;;;4932219;29;20937;-47
2022/11/01 03:44:40;;;;;;;85.43;39.30;;;13.80;1.00;;;;;;4929464;29;20567;-47
2022/11/01 03:47:06;;;;;;;97.70;42.80;;;13.80;1.00;;;;;;4929117;29;20493;-47
2022/11/01 03:49:32;;;;;;;87.27;41.13;;;13.80;1.00;;;;;;4929929;29;20458;-47
2022/11/01 03:51:58;;;;;;;79.50;38.00;;;13.80;1.00;;;;;;4928008;29;20445;-46
2022/11/01 03:54:26;;;;;;;90.03;41.07;;;13.70;1.00;;;;;;4929635;29;20222;-47
2022/11/01 03:56:51;;;;;;;89.60;40.90;;;13.80;1.00;;;;;;4928130;29;20449;-45
2022/11/01 03:59:17;;;;;;;91.03;40.77;;;13.80;1.00;;;;;;4938237;29;20802;-46
2022/11/01 04:01:43;;;;;;;87.97;41.73;;;13.80;1.00;;;;;;4928485;29;20225;-45
2022/11/01 04:04:08;;;;;;;89.90;43.13;;;13.90;1.00;;;;;;4928369;29;20190;-45
2022/11/01 04:06:34;;;;;;;79.50;40.27;;;13.90;1.00;;;;;;4928284;29;20567;-45
2022/11/01 04:09:00;;;;;;;88.63;41.53;;;13.90;1.00;;;;;;4930130;29;20202;-46
2022/11/01 04:11:25;;;;;;;87.23;41.70;;;13.90;1.00;;;;;;4928120;29;20214;-45
2022/11/01 04:13:51;;;;;;;79.93;40.87;;;13.90;1.00;;;;;;4926917;29;20218;-45
2022/11/01 04:21:45;;;;;;;77.97;40.87;;;13.90;1.00;;;;;;4927148;29;21025;-47
2022/11/01 04:24:19;;;;;;;81.03;41.03;;;13.90;1.00;;;;;;4927938;29;20446;-46
2022/11/01 04:26:45;;;;;;;88.23;40.13;;;13.90;1.00;;;;;;4930095;29;20548;-44
2022/11/01 04:29:11;;;;;;;89.77;42.90;;;13.80;1.00;;;;;;4929515;29;20465;-44
2022/11/01 04:31:36;;;;;;;85.20;41.40;;;13.90;1.00;;;;;;4926931;29;20265;-44
2022/11/01 04:34:03;;;;;;;75.30;39.93;;;13.90;1.00;;;;;;4927545;29;20645;-44
2022/11/01 04:36:29;;;;;;;81.33;39.63;;;13.90;1.00;;;;;;4924811;29;20206;-44
2022/11/01 04:38:56;;;;;;;75.23;38.10;;;13.80;1.00;;;;;;4928069;29;21407;-44
2022/11/01 04:41:27;;;;;;;88.30;40.93;;;13.90;1.00;;;;;;4928244;29;20529;-45
2022/11/01 04:43:55;;;;;;;91.07;39.93;;;13.80;1.00;;;;;;4930602;29;21068;-44
2022/11/01 04:46:21;;;;;;;92.47;41.77;;;13.80;1.00;;;;;;4925536;29;21078;-45
2022/11/01 04:48:46;;;;;;;80.57;41.10;;;13.90;1.00;;;;;;4925948;29;20486;-45
2022/11/01 04:51:12;;;;;;;92.60;43.07;;;13.80;1.00;;;;;;4929579;29;20206;-44
2022/11/01 04:53:38;;;;;;;92.50;43.20;;;13.80;1.00;;;;;;4926665;29;20300;-44
2022/11/01 04:56:05;;;;;;;88.40;42.20;;;13.80;1.00;;;;;;4929351;29;20190;-45
2022/11/01 04:58:33;;;;;;;79.70;40.57;;;13.90;1.00;;;;;;4928751;29;20245;-45
2022/11/01 05:01:02;;;;;;;87.43;42.40;;;13.80;1.00;;;;;;4929042;29;20497;-45
2022/11/01 05:03:28;;;;;;;81.50;41.60;;;13.80;1.00;;;;;;4925153;29;20921;-45
2022/11/01 05:05:54;;;;;;;92.77;42.60;;;13.80;1.00;;;;;;4928030;29;20446;-45
2022/11/01 05:08:19;;;;;;;78.30;41.13;;;13.80;1.00;;;;;;4925038;29;20936;-45
2022/11/01 05:10:45;;;;;;;85.00;40.27;;;13.80;1.00;;;;;;4933768;29;20555;-50
2022/11/01 05:13:12;;;;;;;89.47;43.80;;;13.80;1.00;;;;;;4930177;29;20604;-49
2022/11/01 05:15:38;;;;;;;102.93;42.70;;;13.80;1.00;;;;;;4927508;29;20193;-49
2022/11/01 05:18:04;;;;;;;83.90;42.67;;;13.80;1.00;;;;;;4928812;29;20540;-50
2022/11/01 05:20:30;;;;;;;83.87;44.07;;;13.80;1.00;;;;;;4927450;29;20429;-50
2022/11/01 05:23:00;;;;;;;79.13;41.33;;;13.80;1.00;;;;;;4931229;29;20450;-51
2022/11/01 05:25:27;;;;;;;80.13;42.20;;;13.80;1.00;;;;;;4929139;29;20558;-50
2022/11/01 05:28:21;;;;;;;84.70;41.93;;;13.80;1.00;;;;;;4926765;29;20505;-50
2022/11/01 05:30:46;;;;;;;79.53;38.93;;;13.80;1.00;;;;;;4927960;29;20458;-49
2022/11/01 05:33:12;;;;;;;85.10;43.20;;;13.80;1.00;;;;;;4928827;29;20470;-50
2022/11/01 05:35:37;;;;;;;89.43;42.57;;;13.80;1.00;;;;;;4927229;29;20275;-49
2022/11/01 05:38:04;;;;;;;93.10;43.40;;;13.80;1.00;;;;;;4927418;29;20194;-50
2022/11/01 05:40:30;;;;;;;76.53;41.97;;;13.80;1.00;;;;;;4923185;29;20194;-50
2022/11/01 05:42:56;;;;;;;83.17;42.10;;;13.90;1.00;;;;;;4928431;29;20434;-50
2022/11/01 05:45:21;;;;;;;84.07;41.57;;;13.80;1.00;;;;;;4925584;29;20442;-50
2022/11/01 05:47:47;;;;;;;88.30;41.97;;;13.80;1.00;;;;;;4928981;29;20498;-50
2022/11/01 05:50:15;;;;;;;80.70;42.80;;;13.70;1.00;;;;;;4930966;29;20230;-50
2022/11/01 05:52:41;;;;;;;88.17;42.70;;;13.70;1.00;;;;;;4931400;29;20501;-50
2022/11/01 05:55:08;;;;;;;97.67;42.30;;;13.70;1.00;;;;;;4925582;29;20490;-50
2022/11/01 05:57:34;;;;;;;86.27;42.70;;;13.70;1.00;;;;;;4922394;29;21130;-50
2022/11/01 06:00:00;;;;;;;82.50;40.97;;;13.80;1.00;;;;;;4929144;29;20441;-50
2022/11/01 06:02:25;;;;;;;81.90;42.10;;;13.70;1.00;;;;;;4926363;29;20649;-50
2022/11/01 06:04:51;;;;;;;77.17;40.60;;;13.70;1.00;;;;;;4930839;29;20925;-49
2022/11/01 06:07:17;;;;;;;78.73;39.37;;;13.70;1.00;;;;;;4928979;29;20205;-49
2022/11/01 06:09:43;;;;;;;88.43;42.73;;;13.80;1.00;;;;;;4927162;29;20205;-50
2022/11/01 06:12:08;;;;;;;79.10;42.17;;;13.80;1.00;;;;;;4931430;29;20806;-49
2022/11/01 06:14:34;;;;;;;79.27;41.90;;;13.80;1.00;;;;;;4932665;29;20217;-50
2022/11/01 06:16:59;;;;;;;87.50;41.00;;;13.70;1.00;;;;;;4932208;29;20313;-50
2022/11/01 06:19:25;;;;;;;81.27;40.03;;;13.70;1.00;;;;;;4933130;29;20205;-50
2022/11/01 06:21:50;;;;;;;82.87;41.13;;;13.70;1.00;;;;;;4931840;29;20195;-50
2022/11/01 06:24:16;;;;;;;76.73;40.90;;;13.70;1.00;;;;;;4932514;29;20194;-50
2022/11/01 06:26:42;;;;;;;83.10;42.60;;;13.70;1.00;;;;;;4931623;29;20402;-46
2022/11/01 06:29:07;;;;;;;78.43;41.20;;;13.70;1.00;;;;;;4931221;29;20692;-46
2022/11/01 06:31:33;;;;;;;77.70;39.70;;;13.70;1.00;;;;;;4929630;29;20190;-46
2022/11/01 06:33:58;;;;;;;82.50;42.37;;;13.70;1.00;;;;;;4931082;29;20245;-46
2022/11/01 06:36:24;;;;;;;81.13;40.70;;;13.70;1.00;;;;;;4932468;29;20200;-46
2022/11/01 06:38:50;;;;;;;84.33;40.40;;;13.70;1.00;;;;;;4933737;29;20198;-46
2022/11/01 06:41:16;;;;;;;79.17;39.70;;;13.70;1.00;;;;;;4930659;29;20202;-46
2022/11/01 06:43:41;;;;;;;82.73;41.17;;;13.70;1.00;;;;;;4930796;29;20210;-46
2022/11/01 06:46:07;;;;;;;80.73;39.47;;;13.80;1.00;;;;;;4928458;29;21923;-46
2022/11/01 06:48:33;;;;;;;76.40;36.50;;;13.80;1.00;;;;;;4933676;29;20238;-46
2022/11/01 06:51:02;;;;;;;75.30;39.30;;;13.80;1.00;;;;;;4930891;29;20191;-46
2022/11/01 06:53:28;;;;;;;78.97;35.30;;;13.90;1.00;;;;;;4929203;29;20211;-46
2022/11/01 06:55:53;;;;;;;69.80;38.13;;;13.90;1.00;;;;;;4927906;29;20456;-46
2022/11/01 06:58:19;;;;;;;93.43;39.20;;;13.90;1.00;;;;;;4930458;29;20438;-47
2022/11/01 07:00:44;;;;;;;73.83;37.03;;;13.90;1.00;;;;;;4929515;29;20186;-50
2022/11/01 07:03:13;;;;;;;70.83;37.47;;;13.90;1.00;;;;;;4930311;29;20186;-50
2022/11/01 07:05:39;;;;;;;68.20;35.90;;;13.90;1.00;;;;;;4929952;29;20605;-50
2022/11/01 07:08:14;;;;;;;68.07;35.83;;;13.90;1.00;;;;;;4928851;29;21122;-50
2022/11/01 07:10:42;;;;;;;68.30;36.37;;;14.00;1.00;;;;;;4927233;29;20444;-47
2022/11/01 07:13:12;;;;;;;75.40;38.00;;;13.90;1.00;;;;;;4931603;29;20553;-50
2022/11/01 07:15:38;;;;;;;74.20;37.00;;;13.90;1.00;;;;;;4928693;29;20863;-49
2022/11/01 07:18:05;;;;;;;68.27;36.70;;;13.90;1.00;;;;;;4929610;29;20469;-50
2022/11/01 07:20:40;;;;;;;62.03;35.07;;;14.00;1.00;;;;;;4929208;29;20434;-49
2022/11/01 07:23:06;;;;;;;64.17;33.80;;;14.00;1.00;;;;;;4926309;29;20520;-50
2022/11/01 07:25:32;;;;;;;64.10;34.37;;;14.00;1.00;;;;;;4928752;29;20450;-51
2022/11/01 07:27:58;;;;;;;68.53;34.87;;;14.10;1.00;;;;;;4930530;29;20434;-50
2022/11/01 07:30:25;;;;;;;63.77;33.97;;;14.10;1.00;;;;;;4926575;29;20519;-50
2022/11/01 07:32:59;;;;;;;60.10;35.33;;;14.10;99.90;;;;;;4928069;29;21038;-50
2022/11/01 07:35:25;;;;;;;59.00;33.27;;;14.10;99.90;;;;;;4928836;29;20463;-50
2022/11/01 07:37:51;;;;;;;67.90;34.10;;;14.20;99.90;;;;;;4926019;29;20815;-50
2022/11/01 07:40:18;;;;;;;60.10;33.90;;;14.20;99.90;;;;;;4927110;29;20804;-50
2022/11/01 07:42:44;;;;;;;66.83;34.73;;;14.30;99.90;;;;;;4924441;29;20456;-50
2022/11/01 07:45:12;;;;;;;62.83;32.80;;;14.40;99.90;;;;;;4925520;29;20783;-51
2022/11/01 07:47:38;;;;;;;59.93;33.33;;;14.40;99.90;;;;;;4926244;29;20847;-49
2022/11/01 07:50:05;;;;;;;62.37;34.17;;;14.40;99.90;;;;;;4929190;29;20541;-49
2022/11/01 07:52:30;;;;;;;66.63;32.43;;;14.40;99.90;;;;;;4930025;29;20812;-50
2022/11/01 07:54:56;;;;;;;61.10;33.10;;;14.50;99.90;;;;;;4928549;29;20474;-49
2022/11/01 07:57:22;;;;;;;67.87;33.57;;;14.50;99.90;;;;;;4928996;29;20194;-49
2022/11/01 07:59:47;;;;;;;60.20;33.03;;;14.60;99.90;;;;;;4931127;29;20727;-50
2022/11/01 08:02:13;;;;;;;59.10;32.30;;;14.60;99.90;;;;;;4929374;29;20278;-50
2022/11/01 08:04:39;;;;;;;53.63;30.30;;;14.70;99.90;;;;;;4931234;29;20202;-49
2022/11/01 08:07:04;;;;;;;59.40;33.60;;;14.80;99.90;;;;;;4930013;29;20260;-49
2022/11/01 08:09:30;;;;;;;52.43;31.00;;;14.80;99.90;;;;;;4923210;29;20197;-51
2022/11/01 08:11:56;;;;;;;65.07;31.77;;;14.80;99.90;;;;;;4927723;29;20668;-46
2022/11/01 08:14:21;;;;;;;60.33;32.17;;;14.90;99.90;;;;;;4928867;29;20324;-45
2022/11/01 08:16:49;;;;;;;63.30;32.20;;;14.80;99.90;;;;;;4927604;29;20695;-45
2022/11/01 08:19:14;;;;;;;61.47;30.87;;;14.90;99.90;;;;;;4928968;29;20273;-45
2022/11/01 08:21:40;;;;;;;51.53;30.00;;;14.90;99.90;;;;;;4926253;29;20887;-45
2022/11/01 08:24:05;;;;;;;50.70;30.17;;;15.00;99.90;;;;;;4926189;29;20567;-45
2022/11/01 08:26:31;;;;;;;58.30;29.60;;;14.90;99.90;;;;;;4928408;29;20198;-46
2022/11/01 08:28:56;;;;;;;52.50;30.63;;;15.00;99.90;;;;;;4928158;29;20265;-46
2022/11/01 08:31:22;;;;;;;56.30;29.90;;;15.10;99.90;;;;;;4929021;29;20679;-46
2022/11/01 08:33:48;;;;;;;51.73;27.30;;;15.20;99.90;;;;;;4930963;29;20213;-46
2022/11/01 08:36:14;;;;;;;41.20;27.10;;;15.30;99.90;;;;;;4929121;29;20228;-46
2022/11/01 08:38:39;;;;;;;48.37;26.83;;;15.30;99.90;;;;;;4925183;29;20198;-45
2022/11/01 08:41:05;;;;;;;39.70;24.07;;;15.30;99.90;;;;;;4928799;29;21118;-45
2022/11/01 08:43:30;;;;;;;45.23;24.23;;;15.40;70.00;;;;;;4929022;29;20194;-46
2022/11/01 08:45:57;;;;;;;45.13;25.40;;;15.40;1.00;;;;;;4928920;29;20197;-45
2022/11/01 08:48:23;;;;;;;42.97;22.10;;;15.30;1.00;;;;;;4930107;29;20331;-46
2022/11/01 08:50:48;;;;;;;39.13;22.13;;;15.30;1.00;;;;;;4928761;29;20557;-45
2022/11/01 08:53:14;;;;;;;31.60;20.40;;;15.40;20.90;;;;;;4932906;29;20191;-46
2022/11/01 08:55:40;;;;;;;27.67;15.97;;;15.40;1.00;;;;;;4929057;29;20194;-45
2022/11/01 08:58:07;;;;;;;21.23;11.07;;;15.60;1.00;;;;;;4930334;29;20646;-45
2022/11/01 09:00:33;;;;;;;19.37;10.10;;;15.80;1.00;;;;;;4928360;29;20920;-45
2022/11/01 09:02:59;;;;;;;18.43;9.47;;;15.90;99.90;;;;;;4927724;29;20540;-45
2022/11/01 09:05:25;;;;;;;15.50;9.63;;;16.20;1.00;;;;;;4926667;29;20561;-46
2022/11/01 09:07:56;;;;;;;13.83;8.67;;;16.40;99.90;;;;;;4931659;29;20649;-46
2022/11/01 09:10:22;;;;;;;14.10;8.30;;;16.50;99.90;;;;;;4929723;29;20214;-46
2022/11/01 09:12:47;;;;;;;18.10;8.70;;;16.70;1.00;;;;;;4927878;29;20772;-46
2022/11/01 09:15:13;;;;;;;18.13;7.53;;;16.80;2.10;;;;;;4925069;29;20230;-45
2022/11/01 09:17:39;;;;;;;11.30;7.73;;;17.00;1.00;;;;;;4927608;29;20190;-46
2022/11/01 09:20:05;;;;;;;18.63;7.73;;;17.10;1.00;;;;;;4928835;29;20249;-48
2022/11/01 09:22:30;;;;;;;15.67;7.77;;;17.20;99.90;;;;;;4931080;29;20288;-44
2022/11/01 09:24:57;;;;;;;19.33;6.97;;;17.30;99.90;;;;;;4928866;29;20981;-44
2022/11/01 09:27:23;;;;;;;14.57;7.13;;;17.40;99.90;;;;;;4930569;29;20198;-44
2022/11/01 09:29:49;;;;;;;14.40;7.10;;;17.40;97.90;;;;;;4927970;29;20454;-45
2022/11/01 09:32:14;;;;;;;15.40;7.40;;;17.40;1.00;;;;;;4928139;29;20513;-45
2022/11/01 09:34:40;;;;;;;10.90;6.80;;;17.40;99.90;;;;;;4929454;29;20220;-45
2022/11/01 09:37:05;;;;;;;15.47;7.57;;;17.40;99.90;;;;;;4928225;29;20560;-45
2022/11/01 09:39:31;;;;;;;10.53;6.80;;;17.40;99.90;;;;;;4926519;29;20194;-45
2022/11/01 09:42:00;;;;;;;10.77;7.60;;;17.50;99.90;;;;;;4927709;29;20741;-45
2022/11/01 09:44:29;;;;;;;12.47;6.97;;;17.60;99.90;;;;;;4925258;29;20202;-46
2022/11/01 09:46:59;;;;;;;13.93;7.03;;;17.60;99.90;;;;;;4932229;29;20532;-45
2022/11/01 09:49:30;;;;;;;11.00;6.97;;;17.50;1.00;;;;;;4933563;29;20457;-46
2022/11/01 09:51:57;;;;;;;11.70;6.80;;;17.50;99.90;;;;;;4932555;29;20438;-43
2022/11/01 09:54:24;;;;;;;16.17;7.10;;;17.50;99.90;;;;;;4933132;29;20811;-46
2022/11/01 09:56:58;;;;;;;15.50;6.60;;;17.50;71.00;;;;;;4925733;29;20458;-45
2022/11/01 09:59:39;;;;;;;18.60;7.10;;;17.50;99.90;;;;;;4928481;29;20456;-46
2022/11/01 10:02:44;;;;;;;13.47;6.83;;;17.50;99.90;;;;;;4926134;29;20544;-46
2022/11/01 10:05:21;;;;;;;16.23;7.20;;;17.40;99.90;;;;;;4932225;29;20780;-45
2022/11/01 10:08:22;;;;;;;9.07;7.13;;;17.30;1.00;;;;;;4933229;29;20456;-44
2022/11/01 10:11:33;;;;;;;11.77;7.27;;;17.30;1.00;;;;;;4931632;29;20445;-46
2022/11/01 10:14:03;;;;;;;17.83;7.30;;;17.30;99.90;;;;;;4932997;29;20482;-46
2022/11/01 10:16:37;;;;;;;13.57;7.27;;;17.20;99.90;;;;;;4933040;29;20430;-45
2022/11/01 10:19:13;;;;;;;17.00;8.10;;;17.20;99.90;;;;;;4934774;29;20430;-46
2022/11/01 10:21:59;;;;;;;12.23;7.40;;;17.20;1.00;;;;;;4931857;29;20443;-46
2022/11/01 10:24:41;;;;;;;15.03;6.70;;;17.20;1.00;;;;;;4933010;29;20465;-43
2022/11/01 10:27:41;;;;;;;12.13;8.20;;;17.30;99.90;;;;;;4933132;29;21111;-43
2022/11/01 10:30:13;;;;;;;12.33;8.27;;;17.20;99.90;;;;;;4932343;29;21005;-43
2022/11/01 10:32:43;;;;;;;12.90;6.67;;;17.30;99.90;;;;;;4928672;29;20457;-44
2022/11/01 10:35:28;;;;;;;12.03;6.77;;;17.60;99.90;;;;;;4932108;29;20596;-44
2022/11/01 10:38:23;;;;;;;11.57;6.23;;;18.50;1.00;;;;;;4934242;29;20564;-44
2022/11/01 10:41:05;;;;;;;11.10;5.53;;;20.30;99.90;;;;;;4934294;29;20436;-45
2022/11/01 10:43:36;;;;;;;10.77;5.73;;;21.70;99.90;;;;;;4932843;29;20548;-45
2022/11/01 10:46:03;;;;;;;9.90;5.20;;;23.00;1.00;;;;;;4928157;29;20505;-45
2022/11/01 10:48:37;;;;;;;9.77;4.93;;;24.10;99.90;;;;;;4927707;29;21016;-45
2022/11/01 10:51:05;;;;;;;9.10;4.60;;;25.10;82.50;;;;;;4934568;29;20799;-45
2022/11/01 10:53:43;;;;;;;9.30;3.80;;;25.80;1.00;;;;;;4933600;29;20564;-46
2022/11/01 10:56:16;;;;;;;5.00;2.53;;;25.90;1.00;;;;;;4930905;29;20433;-46
2022/11/01 10:58:48;;;;;;;3.30;2.07;;;26.40;1.00;;;;;;4930859;29;20450;-46
2022/11/01 11:01:24;;;;;;;3.03;1.73;;;26.60;1.00;;;;;;4931084;29;20454;-46
2022/11/01 11:03:51;;;;;;;5.43;1.70;;;26.10;1.00;;;;;;4928836;29;20453;-45
2022/11/01 11:06:18;;;;;;;3.80;2.13;;;25.30;1.00;;;;;;4932107;29;20450;-45
2022/11/01 11:08:48;;;;;;;5.23;2.00;;;25.00;1.00;;;;;;4933164;29;20457;-45
2022/11/01 11:11:15;;;;;;;6.43;1.87;;;25.10;1.00;;;;;;4932824;29;20441;-46
2022/11/01 11:13:45;;;;;;;4.70;1.60;;;25.90;1.00;;;;;;4933102;29;20481;-46
2022/11/01 11:16:32;;;;;;;8.10;1.50;;;25.60;1.00;;;;;;4926795;29;20447;-46
2022/11/01 11:19:06;;;;;;;7.37;1.57;;;26.10;1.00;;;;;;4929933;28;20438;-45
2022/11/01 11:21:33;;;;;;;4.03;1.57;;;26.00;1.00;;;;;;4928731;29;20441;-45
2022/11/01 11:23:59;;;;;;;5.47;1.60;;;25.20;1.00;;;;;;4933014;29;20454;-45
2022/11/01 11:26:25;;;;;;;7.60;2.00;;;25.10;1.00;;;;;;4928562;29;20544;-46
2022/11/01 11:28:55;;;;;;;9.27;1.80;;;24.70;1.00;;;;;;4929826;29;20437;-45
2022/11/01 11:31:25;;;;;;;6.30;1.70;;;24.60;1.00;;;;;;4930775;29;20940;-45
2022/11/01 11:33:57;;;;;;;7.80;1.63;;;24.40;1.00;;;;;;4932221;29;20486;-46
2022/11/01 11:36:28;;;;;;;7.87;1.90;;;25.00;1.00;;;;;;4929923;29;20446;-44
2022/11/01 11:38:54;;;;;;;6.77;1.73;;;24.40;1.00;;;;;;4932855;29;20783;-43
2022/11/01 11:41:32;;;;;;;4.47;1.90;;;24.60;1.00;;;;;;4931325;29;20943;-43
2022/11/01 11:43:58;;;;;;;10.13;2.03;;;25.20;1.00;;;;;;4930350;29;20470;-43
2022/11/01 11:46:24;;;;;;;9.57;1.90;;;25.40;1.00;;;;;;4929289;29;20565;-44
2022/11/01 11:48:53;;;;;;;7.67;2.20;;;25.60;1.00;;;;;;4931811;29;20568;-43
2022/11/01 11:51:23;;;;;;;7.17;1.63;;;26.20;1.00;;;;;;4924002;29;20206;-44
2022/11/01 11:54:19;;;;;;;14.80;2.33;;;26.00;1.00;;;;;;4932429;29;20477;-44
2022/11/01 11:56:45;;;;;;;7.47;2.03;;;25.60;1.00;;;;;;4932367;29;20446;-43
2022/11/01 11:59:21;;;;;;;6.23;1.77;;;25.40;1.00;;;;;;4931134;29;20457;-44
2022/11/01 12:01:47;;;;;;;7.00;1.90;;;25.70;1.00;;;;;;4931436;29;20446;-44
2022/11/01 12:04:15;;;;;;;12.03;1.83;;;26.20;1.00;;;;;;4930956;29;20471;-44
2022/11/01 12:06:43;;;;;;;7.60;2.00;;;26.70;1.00;;;;;;4929352;29;20194;-50
2022/11/01 12:09:42;;;;;;;6.10;2.17;;;25.80;1.00;;;;;;4931063;29;20843;-44
2022/11/01 12:12:22;;;;;;;6.00;2.07;;;25.20;1.00;;;;;;4929048;29;20437;-45
2022/11/01 12:14:48;;;;;;;8.50;2.03;;;25.60;1.00;;;;;;4930882;29;20489;-44
2022/11/01 12:17:27;;;;;;;8.50;2.10;;;26.10;1.00;;;;;;4931759;29;20442;-44
2022/11/01 12:20:27;;;;;;;9.63;2.30;;;26.90;1.00;;;;;;4931477;29;20198;-45
2022/11/01 12:23:09;;;;;;;6.93;2.20;;;27.40;1.00;;;;;;4928085;29;20505;-44
2022/11/01 12:25:37;;;;;;;6.70;2.20;;;26.80;1.00;;;;;;4920183;29;20826;-44
2022/11/01 12:28:13;;;;;;;8.47;2.20;;;26.60;1.00;;;;;;4932100;29;20454;-44
2022/11/01 12:30:40;;;;;;;11.00;2.30;;;26.60;1.00;;;;;;4931008;29;20442;-45
2022/11/01 12:33:17;;;;;;;10.20;3.30;;;26.70;1.00;;;;;;4933122;29;20446;-45
2022/11/01 12:35:46;;;;;;;15.23;2.17;;;27.10;1.00;;;;;;4923577;29;20446;-45
2022/11/01 12:38:30;;;;;;;8.40;2.10;;;27.20;1.00;;;;;;4932204;29;20464;-46
2022/11/01 12:40:58;;;;;;;9.87;2.30;;;27.20;1.00;;;;;;4930956;29;20445;-45
2022/11/01 12:43:47;;;;;;;10.90;2.40;;;27.40;1.00;;;;;;4925603;29;20777;-46
2022/11/01 12:46:18;;;;;;;6.93;2.33;;;27.70;1.00;;;;;;4928232;29;20493;-45
2022/11/01 12:48:53;;;;;;;9.50;2.60;;;27.80;1.00;;;;;;4930267;29;20832;-45
2022/11/01 12:51:26;;;;;;;8.30;1.70;;;27.90;1.00;;;;;;4929652;29;20777;-45
2022/11/01 12:54:04;;;;;;;9.60;2.37;;;27.20;1.00;;;;;;4930605;29;20477;-46
2022/11/01 12:56:31;;;;;;;9.20;2.10;;;27.20;1.00;;;;;;4924831;29;20529;-45
2022/11/01 12:58:57;;;;;;;17.13;2.60;;;27.50;1.00;;;;;;4930546;29;20437;-45